地図

経路データ

SID SEASON NUMBER BASIN SUBBASIN NAME ISO_TIME NATURE LAT LON WMO_WIND WMO_PRES WMO_AGENCY TRACK_TYPE DIST2LAND LANDFALL IFLAG USA_AGENCY USA_ATCF_ID USA_LAT USA_LON USA_RECORD USA_STATUS USA_WIND USA_PRES USA_SSHS USA_R34_NE USA_R34_SE USA_R34_SW USA_R34_NW USA_R50_NE USA_R50_SE USA_R50_SW USA_R50_NW USA_R64_NE USA_R64_SE USA_R64_SW USA_R64_NW USA_POCI USA_ROCI USA_RMW USA_EYE TOKYO_LAT TOKYO_LON TOKYO_GRADE TOKYO_WIND TOKYO_PRES TOKYO_R50_DIR TOKYO_R50_LONG TOKYO_R50_SHORT TOKYO_R30_DIR TOKYO_R30_LONG TOKYO_R30_SHORT TOKYO_LAND CMA_LAT CMA_LON CMA_CAT CMA_WIND CMA_PRES HKO_LAT HKO_LON HKO_CAT HKO_WIND HKO_PRES NEWDELHI_LAT NEWDELHI_LON NEWDELHI_GRADE NEWDELHI_WIND NEWDELHI_PRES NEWDELHI_CI NEWDELHI_DP NEWDELHI_POCI REUNION_LAT REUNION_LON REUNION_TYPE REUNION_WIND REUNION_PRES REUNION_TNUM REUNION_CI REUNION_RMW REUNION_R34_NE REUNION_R34_SE REUNION_R34_SW REUNION_R34_NW REUNION_R50_NE REUNION_R50_SE REUNION_R50_SW REUNION_R50_NW REUNION_R64_NE REUNION_R64_SE REUNION_R64_SW REUNION_R64_NW BOM_LAT BOM_LON BOM_TYPE BOM_WIND BOM_PRES BOM_TNUM BOM_CI BOM_RMW BOM_R34_NE BOM_R34_SE BOM_R34_SW BOM_R34_NW BOM_R50_NE BOM_R50_SE BOM_R50_SW BOM_R50_NW BOM_R64_NE BOM_R64_SE BOM_R64_SW BOM_R64_NW BOM_ROCI BOM_POCI BOM_EYE BOM_POS_METHOD BOM_PRES_METHOD NADI_LAT NADI_LON NADI_CAT NADI_WIND NADI_PRES WELLINGTON_LAT WELLINGTON_LON WELLINGTON_WIND WELLINGTON_PRES DS824_LAT DS824_LON DS824_STAGE DS824_WIND DS824_PRES TD9636_LAT TD9636_LON TD9636_STAGE TD9636_WIND TD9636_PRES TD9635_LAT TD9635_LON TD9635_WIND TD9635_PRES TD9635_ROCI NEUMANN_LAT NEUMANN_LON NEUMANN_CLASS NEUMANN_WIND NEUMANN_PRES MLC_LAT MLC_LON MLC_CLASS MLC_WIND MLC_PRES USA_GUST BOM_GUST BOM_GUST_PER REUNION_GUST REUNION_GUST_PER USA_SEAHGT USA_SEARAD_NE USA_SEARAD_SE USA_SEARAD_SW USA_SEARAD_NW STORM_SPEED STORM_DIR
1906099S15065 1906 14 SI MM NOT_NAMED 1906-04-09 00:00:00 TS -15.1000 65.3000 main 980 932 _________O____ -1 -15.1000 65.3000 TC 9 243
1906099S15065 1906 14 SI MM NOT_NAMED 1906-04-09 03:00:00 TS -15.3001 64.9002 main 932 884 _________P____ -1 -15.3001 64.9002 TC 9 243
1906099S15065 1906 14 SI MM NOT_NAMED 1906-04-09 06:00:00 TS -15.5000 64.5000 main 884 837 _________O____ -1 -15.5000 64.5000 TC 9 243
1906099S15065 1906 14 SI MM NOT_NAMED 1906-04-09 09:00:00 TS -15.6999 64.0999 main 837 789 _________P____ -1 -15.6999 64.0999 TC 9 243
1906099S15065 1906 14 SI MM NOT_NAMED 1906-04-09 12:00:00 TS -15.9000 63.7000 main 789 741 _________O____ -1 -15.9000 63.7000 TC 9 243
1906099S15065 1906 14 SI MM NOT_NAMED 1906-04-09 15:00:00 TS -16.0925 63.2924 main 741 694 _________P____ -1 -16.0925 63.2924 TC 9 242
1906099S15065 1906 14 SI MM NOT_NAMED 1906-04-09 18:00:00 TS -16.3000 62.9000 main 694 647 _________O____ -1 -16.3000 62.9000 TC 9 238
1906099S15065 1906 14 SI MM NOT_NAMED 1906-04-09 21:00:00 TS -16.5500 62.5275 main 647 601 _________P____ -1 -16.5500 62.5275 TC 8 233
1906099S15065 1906 14 SI MM NOT_NAMED 1906-04-10 00:00:00 TS -16.8000 62.2000 main 601 562 _________O____ -1 -16.8000 62.2000 TC 7 231
1906099S15065 1906 14 SI MM NOT_NAMED 1906-04-10 03:00:00 TS -17.0074 61.9349 main 562 531 _________P____ -1 -17.0074 61.9349 TC 6 230
1906099S15065 1906 14 SI MM NOT_NAMED 1906-04-10 06:00:00 TS -17.2000 61.7000 main 531 501 _________O____ -1 -17.2000 61.7000 TC 6 230
1906099S15065 1906 14 SI MM NOT_NAMED 1906-04-10 09:00:00 TS -17.4000 61.4499 main 492 462 _________P____ -1 -17.4000 61.4499 TC 6 230
1906099S15065 1906 14 SI MM NOT_NAMED 1906-04-10 12:00:00 TS -17.6000 61.2000 main 462 432 _________O____ -1 -17.6000 61.2000 TC 6 231
1906099S15065 1906 14 SI MM NOT_NAMED 1906-04-10 15:00:00 TS -17.7925 60.9424 main 423 393 _________P____ -1 -17.7925 60.9424 TC 6 230
1906099S15065 1906 14 SI MM NOT_NAMED 1906-04-10 18:00:00 TS -18.0000 60.7000 main 393 362 _________O____ -1 -18.0000 60.7000 TC 6 224
1906099S15065 1906 14 SI MM NOT_NAMED 1906-04-10 21:00:00 TS -18.2575 60.4775 main 356 326 _________P____ -1 -18.2575 60.4775 TC 6 217
1906099S15065 1906 14 SI MM NOT_NAMED 1906-04-11 00:00:00 TS -18.5000 60.3000 main 326 305 _________O____ -1 -18.5000 60.3000 TC 5 215
1906099S15065 1906 14 SI MM NOT_NAMED 1906-04-11 03:00:00 TS -18.6650 60.1774 main 305 290 _________P____ -1 -18.6650 60.1774 TC 4 212
1906099S15065 1906 14 SI MM NOT_NAMED 1906-04-11 06:00:00 TS -18.8000 60.1000 main 290 285 _________O____ -1 -18.8000 60.1000 TC 3 203
1906099S15065 1906 14 SI MM NOT_NAMED 1906-04-11 09:00:00 TS -18.9500 60.0499 main 275 265 _________P____ -1 -18.9500 60.0499 TC 3 197
1906099S15065 1906 14 SI MM NOT_NAMED 1906-04-11 12:00:00 TS -19.1000 60.0000 main 265 251 _________O____ -1 -19.1000 60.0000 TC 3 205
1906099S15065 1906 14 SI MM NOT_NAMED 1906-04-11 15:00:00 TS -19.2500 59.9075 main 251 232 _________P____ -1 -19.2500 59.9075 TC 4 212
1906099S15065 1906 14 SI MM NOT_NAMED 1906-04-11 18:00:00 TS -19.4000 59.8000 main 232 217 _________O____ -1 -19.4000 59.8000 TC 4 215
1906099S15065 1906 14 SI MM NOT_NAMED 1906-04-11 21:00:00 TS -19.5425 59.6925 main 217 199 _________P____ -1 -19.5425 59.6925 TC 4 212
1906099S15065 1906 14 SI MM NOT_NAMED 1906-04-12 00:00:00 TS -19.7000 59.6000 main 199 183 _________O____ -1 -19.7000 59.6000 TC 4 203
1906099S15065 1906 14 SI MM NOT_NAMED 1906-04-12 03:00:00 TS -19.8850 59.5425 main 183 178 _________P____ -1 -19.8850 59.5425 TC 4 193
1906099S15065 1906 14 SI MM NOT_NAMED 1906-04-12 06:00:00 TS -20.1000 59.5000 main 178 166 _________O____ -1 -20.1000 59.5000 TC 5 192
1906099S15065 1906 14 SI MM NOT_NAMED 1906-04-12 09:00:00 TS -20.3425 59.4425 main 166 166 _________P____ -1 -20.3425 59.4425 TC 5 191
1906099S15065 1906 14 SI MM NOT_NAMED 1906-04-12 12:00:00 TS -20.6000 59.4000 main 170 170 _________O____ -1 -20.6000 59.4000 TC 5 183
1906099S15065 1906 14 SI MM NOT_NAMED 1906-04-12 15:00:00 TS -20.8575 59.3925 main 179 179 _________P____ -1 -20.8575 59.3925 TC 5 178
1906099S15065 1906 14 SI MM NOT_NAMED 1906-04-12 18:00:00 TS -21.1000 59.4000 main 188 188 _________O____ -1 -21.1000 59.4000 TC 5 178
1906099S15065 1906 14 SI MM NOT_NAMED 1906-04-12 21:00:00 TS -21.3100 59.4025 main 197 197 _________P____ -1 -21.3100 59.4025 TC 4 0
1906099S15065 1906 14 SI MM NOT_NAMED 1906-04-13 00:00:00 TS -21.5000 59.4000 main 208 _________O____ -1 -21.5000 59.4000 TC 4 0

IBTrACS Databaseについて

本データベースは、米国NOAAが公開する1842年以降の世界の熱帯低気圧のベストトラックデータアーカイブInternational Best Track Archive for Climate Stewardship (IBTrACS)を、ウェブで閲覧しやすい形式に変換したものです。

最終更新日:2021-12-01